sensor_id;sensor_type;location;lat;lon;timestamp;pressure;altitude;pressure_sealevel;temperature;humidity
66703;BME280;60933;46.398;-63.798;2023-08-01T00:01:05;101055.09;;;19.67;69.08
66703;BME280;60933;46.398;-63.798;2023-08-01T00:03:31;101058.41;;;19.55;70.47
66703;BME280;60933;46.398;-63.798;2023-08-01T00:05:58;101046.78;;;19.44;71.00
66703;BME280;60933;46.398;-63.798;2023-08-01T00:08:24;101054.16;;;19.38;71.81
66703;BME280;60933;46.398;-63.798;2023-08-01T00:10:50;101046.75;;;19.30;71.68
66703;BME280;60933;46.398;-63.798;2023-08-01T00:13:16;101041.66;;;19.27;71.17
66703;BME280;60933;46.398;-63.798;2023-08-01T00:15:42;101036.03;;;19.19;72.02
66703;BME280;60933;46.398;-63.798;2023-08-01T00:18:09;101038.91;;;19.14;71.11
66703;BME280;60933;46.398;-63.798;2023-08-01T00:20:35;101040.84;;;19.10;70.80
66703;BME280;60933;46.398;-63.798;2023-08-01T00:23:01;101034.19;;;19.05;69.24
66703;BME280;60933;46.398;-63.798;2023-08-01T00:25:27;101025.66;;;19.01;69.57
66703;BME280;60933;46.398;-63.798;2023-08-01T00:27:53;101001.00;;;18.89;70.18
66703;BME280;60933;46.398;-63.798;2023-08-01T00:30:19;100994.25;;;18.85;70.56
66703;BME280;60933;46.398;-63.798;2023-08-01T00:32:45;101023.97;;;18.84;71.13
66703;BME280;60933;46.398;-63.798;2023-08-01T00:35:11;101008.44;;;18.81;71.27
66703;BME280;60933;46.398;-63.798;2023-08-01T00:37:37;101014.75;;;18.77;71.58
66703;BME280;60933;46.398;-63.798;2023-08-01T00:40:04;101017.47;;;18.75;71.42
66703;BME280;60933;46.398;-63.798;2023-08-01T00:42:31;101013.16;;;18.74;71.56
66703;BME280;60933;46.398;-63.798;2023-08-01T00:44:57;101016.84;;;18.70;70.55
66703;BME280;60933;46.398;-63.798;2023-08-01T00:47:24;101016.03;;;18.70;69.87
66703;BME280;60933;46.398;-63.798;2023-08-01T00:49:50;101009.97;;;18.69;68.72
66703;BME280;60933;46.398;-63.798;2023-08-01T00:52:17;101025.13;;;18.78;68.60
66703;BME280;60933;46.398;-63.798;2023-08-01T00:54:43;101025.91;;;18.80;67.59
66703;BME280;60933;46.398;-63.798;2023-08-01T00:57:10;101014.50;;;18.81;67.08
66703;BME280;60933;46.398;-63.798;2023-08-01T00:59:36;101017.72;;;18.87;67.14
66703;BME280;60933;46.398;-63.798;2023-08-01T01:02:02;101015.03;;;18.88;66.66
66703;BME280;60933;46.398;-63.798;2023-08-01T01:04:28;101021.69;;;18.94;66.48
66703;BME280;60933;46.398;-63.798;2023-08-01T01:07:01;101028.72;;;18.93;65.98
66703;BME280;60933;46.398;-63.798;2023-08-01T01:09:29;101025.19;;;18.94;65.45
66703;BME280;60933;46.398;-63.798;2023-08-01T01:11:58;101024.25;;;18.95;65.68
66703;BME280;60933;46.398;-63.798;2023-08-01T01:14:26;101026.78;;;18.97;65.05
66703;BME280;60933;46.398;-63.798;2023-08-01T01:16:52;101026.69;;;18.98;64.09
66703;BME280;60933;46.398;-63.798;2023-08-01T01:19:19;101037.47;;;19.08;62.98
66703;BME280;60933;46.398;-63.798;2023-08-01T01:22:03;101054.53;;;19.16;68.31
66703;BME280;60933;46.398;-63.798;2023-08-01T01:24:32;101056.97;;;19.19;68.33
66703;BME280;60933;46.398;-63.798;2023-08-01T01:26:59;101055.88;;;19.23;70.65
66703;BME280;60933;46.398;-63.798;2023-08-01T01:29:27;101049.97;;;19.19;72.58
66703;BME280;60933;46.398;-63.798;2023-08-01T01:31:53;101037.88;;;19.17;71.29
66703;BME280;60933;46.398;-63.798;2023-08-01T01:34:21;101039.81;;;19.13;72.94
66703;BME280;60933;46.398;-63.798;2023-08-01T01:36:47;101032.22;;;19.08;71.91
66703;BME280;60933;46.398;-63.798;2023-08-01T01:39:13;101026.41;;;19.03;72.10
66703;BME280;60933;46.398;-63.798;2023-08-01T01:41:39;101031.75;;;19.02;72.15
66703;BME280;60933;46.398;-63.798;2023-08-01T01:44:05;101020.63;;;18.98;70.37
66703;BME280;60933;46.398;-63.798;2023-08-01T01:46:31;101021.53;;;18.97;73.70
66703;BME280;60933;46.398;-63.798;2023-08-01T01:48:58;101023.31;;;18.96;73.56
66703;BME280;60933;46.398;-63.798;2023-08-01T01:51:26;101038.25;;;18.94;72.08
66703;BME280;60933;46.398;-63.798;2023-08-01T01:53:52;101047.94;;;18.92;70.89
66703;BME280;60933;46.398;-63.798;2023-08-01T01:56:18;101056.63;;;18.93;74.71
66703;BME280;60933;46.398;-63.798;2023-08-01T01:58:44;101046.16;;;18.93;71.57
66703;BME280;60933;46.398;-63.798;2023-08-01T02:01:10;101043.28;;;18.97;67.98
66703;BME280;60933;46.398;-63.798;2023-08-01T02:03:37;101039.84;;;18.97;69.06
66703;BME280;60933;46.398;-63.798;2023-08-01T02:06:03;101054.28;;;19.04;69.34
66703;BME280;60933;46.398;-63.798;2023-08-01T02:08:32;101063.97;;;19.02;73.75
66703;BME280;60933;46.398;-63.798;2023-08-01T02:10:58;101070.91;;;19.03;74.07
66703;BME280;60933;46.398;-63.798;2023-08-01T02:13:26;101060.63;;;19.00;69.18
66703;BME280;60933;46.398;-63.798;2023-08-01T02:15:53;101065.84;;;19.00;70.34
66703;BME280;60933;46.398;-63.798;2023-08-01T02:18:20;101085.56;;;19.06;70.97
66703;BME280;60933;46.398;-63.798;2023-08-01T02:20:46;101084.91;;;19.02;71.33
66703;BME280;60933;46.398;-63.798;2023-08-01T02:23:12;101079.66;;;19.02;66.55
66703;BME280;60933;46.398;-63.798;2023-08-01T02:25:41;101089.31;;;19.02;68.53
66703;BME280;60933;46.398;-63.798;2023-08-01T02:28:08;101081.34;;;19.03;69.35
66703;BME280;60933;46.398;-63.798;2023-08-01T02:30:38;101074.69;;;18.97;70.46
66703;BME280;60933;46.398;-63.798;2023-08-01T02:33:04;101080.88;;;18.96;72.05
66703;BME280;60933;46.398;-63.798;2023-08-01T02:35:30;101074.78;;;18.96;70.76
66703;BME280;60933;46.398;-63.798;2023-08-01T02:37:56;101075.88;;;18.92;71.79
66703;BME280;60933;46.398;-63.798;2023-08-01T02:40:22;101071.63;;;18.89;66.56
66703;BME280;60933;46.398;-63.798;2023-08-01T02:42:48;101075.78;;;18.93;67.30
66703;BME280;60933;46.398;-63.798;2023-08-01T02:45:14;101080.47;;;18.87;72.83
66703;BME280;60933;46.398;-63.798;2023-08-01T02:47:41;101072.19;;;18.78;71.32
66703;BME280;60933;46.398;-63.798;2023-08-01T02:50:07;101082.50;;;18.81;69.61
66703;BME280;60933;46.398;-63.798;2023-08-01T02:52:33;101073.88;;;18.79;67.21
66703;BME280;60933;46.398;-63.798;2023-08-01T02:55:00;101076.84;;;18.73;67.96
66703;BME280;60933;46.398;-63.798;2023-08-01T02:57:26;101080.22;;;18.75;67.42
66703;BME280;60933;46.398;-63.798;2023-08-01T02:59:52;101087.06;;;18.78;68.76
66703;BME280;60933;46.398;-63.798;2023-08-01T03:02:19;101095.91;;;18.75;68.08
66703;BME280;60933;46.398;-63.798;2023-08-01T03:04:45;101085.63;;;18.72;69.77
66703;BME280;60933;46.398;-63.798;2023-08-01T03:07:11;101084.16;;;18.66;68.70
66703;BME280;60933;46.398;-63.798;2023-08-01T03:09:37;101088.47;;;18.67;70.06
66703;BME280;60933;46.398;-63.798;2023-08-01T03:12:03;101083.47;;;18.63;68.44
66703;BME280;60933;46.398;-63.798;2023-08-01T03:14:30;101092.28;;;18.62;71.45
66703;BME280;60933;46.398;-63.798;2023-08-01T03:16:56;101083.66;;;18.60;71.41
66703;BME280;60933;46.398;-63.798;2023-08-01T03:19:22;101077.75;;;18.56;69.33
66703;BME280;60933;46.398;-63.798;2023-08-01T03:21:49;101095.03;;;18.59;69.50
66703;BME280;60933;46.398;-63.798;2023-08-01T03:24:15;101091.06;;;18.51;72.55
66703;BME280;60933;46.398;-63.798;2023-08-01T03:26:42;101088.00;;;18.43;71.54
66703;BME280;60933;46.398;-63.798;2023-08-01T03:29:08;101106.84;;;18.50;74.72
66703;BME280;60933;46.398;-63.798;2023-08-01T03:31:34;101113.22;;;18.44;75.36
66703;BME280;60933;46.398;-63.798;2023-08-01T03:34:00;101111.63;;;18.42;75.93
66703;BME280;60933;46.398;-63.798;2023-08-01T03:36:26;101111.91;;;18.35;72.66
66703;BME280;60933;46.398;-63.798;2023-08-01T03:38:52;101108.56;;;18.33;76.58
66703;BME280;60933;46.398;-63.798;2023-08-01T03:41:18;101108.38;;;18.37;72.92
66703;BME280;60933;46.398;-63.798;2023-08-01T03:43:44;101100.78;;;18.32;72.11
66703;BME280;60933;46.398;-63.798;2023-08-01T03:46:10;101104.25;;;18.32;74.93
66703;BME280;60933;46.398;-63.798;2023-08-01T03:48:37;101097.25;;;18.33;74.96
66703;BME280;60933;46.398;-63.798;2023-08-01T03:51:03;101089.41;;;18.33;76.59
66703;BME280;60933;46.398;-63.798;2023-08-01T03:53:29;101095.50;;;18.33;78.17
66703;BME280;60933;46.398;-63.798;2023-08-01T03:55:55;101094.81;;;18.30;77.94
66703;BME280;60933;46.398;-63.798;2023-08-01T03:58:22;101106.31;;;18.26;80.37
66703;BME280;60933;46.398;-63.798;2023-08-01T04:00:48;101090.97;;;18.19;77.37
66703;BME280;60933;46.398;-63.798;2023-08-01T04:03:14;101093.59;;;18.19;78.68
66703;BME280;60933;46.398;-63.798;2023-08-01T04:05:40;101092.66;;;18.21;78.85
66703;BME280;60933;46.398;-63.798;2023-08-01T04:08:06;101103.25;;;18.17;80.93
66703;BME280;60933;46.398;-63.798;2023-08-01T04:10:32;101100.81;;;18.14;80.42
66703;BME280;60933;46.398;-63.798;2023-08-01T04:12:58;101105.28;;;18.12;80.81
66703;BME280;60933;46.398;-63.798;2023-08-01T04:15:25;101102.75;;;18.11;81.84
66703;BME280;60933;46.398;-63.798;2023-08-01T04:17:51;101106.38;;;18.08;80.26
66703;BME280;60933;46.398;-63.798;2023-08-01T04:20:17;101108.13;;;18.08;80.85
66703;BME280;60933;46.398;-63.798;2023-08-01T04:22:43;101109.81;;;18.09;81.80
66703;BME280;60933;46.398;-63.798;2023-08-01T04:25:09;101103.81;;;18.07;82.66
66703;BME280;60933;46.398;-63.798;2023-08-01T04:27:35;101089.16;;;18.04;76.00
66703;BME280;60933;46.398;-63.798;2023-08-01T04:30:01;101104.44;;;18.12;81.69
66703;BME280;60933;46.398;-63.798;2023-08-01T04:32:27;101102.75;;;18.11;82.60
66703;BME280;60933;46.398;-63.798;2023-08-01T04:34:54;101096.06;;;18.05;79.48
66703;BME280;60933;46.398;-63.798;2023-08-01T04:37:20;101105.41;;;18.09;81.16
66703;BME280;60933;46.398;-63.798;2023-08-01T04:39:48;101111.66;;;18.07;83.76
66703;BME280;60933;46.398;-63.798;2023-08-01T04:42:14;101114.19;;;18.08;83.36
66703;BME280;60933;46.398;-63.798;2023-08-01T04:44:40;101096.28;;;18.00;84.98
66703;BME280;60933;46.398;-63.798;2023-08-01T04:47:07;101112.50;;;18.07;85.19
66703;BME280;60933;46.398;-63.798;2023-08-01T04:49:33;101109.03;;;18.07;87.91
66703;BME280;60933;46.398;-63.798;2023-08-01T04:51:59;101108.19;;;18.06;86.42
66703;BME280;60933;46.398;-63.798;2023-08-01T04:54:26;101109.13;;;18.05;85.69
66703;BME280;60933;46.398;-63.798;2023-08-01T04:56:52;101104.72;;;18.06;85.44
66703;BME280;60933;46.398;-63.798;2023-08-01T04:59:18;101095.91;;;18.08;86.60
66703;BME280;60933;46.398;-63.798;2023-08-01T05:01:44;101098.44;;;18.10;88.16
66703;BME280;60933;46.398;-63.798;2023-08-01T05:04:10;101099.44;;;18.07;87.92
66703;BME280;60933;46.398;-63.798;2023-08-01T05:06:37;101093.31;;;18.08;88.63
66703;BME280;60933;46.398;-63.798;2023-08-01T05:09:03;101088.81;;;18.10;88.42
66703;BME280;60933;46.398;-63.798;2023-08-01T05:11:30;101094.97;;;18.09;87.44
66703;BME280;60933;46.398;-63.798;2023-08-01T05:13:56;101104.34;;;18.13;88.51
66703;BME280;60933;46.398;-63.798;2023-08-01T05:16:22;101094.81;;;18.12;87.27
66703;BME280;60933;46.398;-63.798;2023-08-01T05:18:48;101102.56;;;18.14;87.88
66703;BME280;60933;46.398;-63.798;2023-08-01T05:21:14;101094.69;;;18.15;86.38
66703;BME280;60933;46.398;-63.798;2023-08-01T05:23:40;101096.50;;;18.13;85.85
66703;BME280;60933;46.398;-63.798;2023-08-01T05:26:07;101094.72;;;18.14;86.59
66703;BME280;60933;46.398;-63.798;2023-08-01T05:28:33;101084.69;;;18.06;86.22
66703;BME280;60933;46.398;-63.798;2023-08-01T05:30:59;101094.28;;;18.06;86.43
66703;BME280;60933;46.398;-63.798;2023-08-01T05:33:25;101095.47;;;18.00;85.85
66703;BME280;60933;46.398;-63.798;2023-08-01T05:35:51;101093.09;;;17.94;85.00
66703;BME280;60933;46.398;-63.798;2023-08-01T05:38:17;101104.63;;;17.90;85.57
66703;BME280;60933;46.398;-63.798;2023-08-01T05:40:43;101093.63;;;17.83;85.53
66703;BME280;60933;46.398;-63.798;2023-08-01T05:43:09;101087.13;;;17.74;86.42
66703;BME280;60933;46.398;-63.798;2023-08-01T05:45:36;101093.47;;;17.68;86.46
66703;BME280;60933;46.398;-63.798;2023-08-01T05:48:02;101086.94;;;17.60;87.12
66703;BME280;60933;46.398;-63.798;2023-08-01T05:50:28;101093.22;;;17.55;87.27
66703;BME280;60933;46.398;-63.798;2023-08-01T05:52:54;101099.53;;;17.51;87.81
66703;BME280;60933;46.398;-63.798;2023-08-01T05:55:20;101098.91;;;17.46;88.32
66703;BME280;60933;46.398;-63.798;2023-08-01T05:57:47;101100.97;;;17.39;88.99
66703;BME280;60933;46.398;-63.798;2023-08-01T06:00:15;101099.47;;;17.34;89.55
66703;BME280;60933;46.398;-63.798;2023-08-01T06:02:41;101098.88;;;17.29;89.86
66703;BME280;60933;46.398;-63.798;2023-08-01T06:05:07;101104.38;;;17.22;90.36
66703;BME280;60933;46.398;-63.798;2023-08-01T06:07:33;101093.38;;;17.16;90.54
66703;BME280;60933;46.398;-63.798;2023-08-01T06:09:59;101097.06;;;17.12;90.79
66703;BME280;60933;46.398;-63.798;2023-08-01T06:12:25;101096.50;;;17.05;90.90
66703;BME280;60933;46.398;-63.798;2023-08-01T06:14:52;101096.63;;;17.02;91.20
66703;BME280;60933;46.398;-63.798;2023-08-01T06:17:18;101093.50;;;16.93;91.11
66703;BME280;60933;46.398;-63.798;2023-08-01T06:19:44;101096.34;;;16.89;91.50
66703;BME280;60933;46.398;-63.798;2023-08-01T06:22:10;101099.91;;;16.86;91.67
66703;BME280;60933;46.398;-63.798;2023-08-01T06:24:36;101105.34;;;16.82;92.10
66703;BME280;60933;46.398;-63.798;2023-08-01T06:27:02;101089.06;;;16.76;92.16
66703;BME280;60933;46.398;-63.798;2023-08-01T06:29:28;101100.47;;;16.74;92.29
66703;BME280;60933;46.398;-63.798;2023-08-01T06:31:54;101105.88;;;16.69;92.87
66703;BME280;60933;46.398;-63.798;2023-08-01T06:34:20;101105.19;;;16.66;93.01
66703;BME280;60933;46.398;-63.798;2023-08-01T06:36:47;101107.00;;;16.64;92.81
66703;BME280;60933;46.398;-63.798;2023-08-01T06:39:13;101108.91;;;16.60;92.64
66703;BME280;60933;46.398;-63.798;2023-08-01T06:41:39;101089.50;;;16.46;92.84
66703;BME280;60933;46.398;-63.798;2023-08-01T06:44:05;101102.22;;;16.54;92.79
66703;BME280;60933;46.398;-63.798;2023-08-01T06:46:31;101094.59;;;16.50;92.66
66703;BME280;60933;46.398;-63.798;2023-08-01T06:48:58;101093.03;;;16.45;92.42
66703;BME280;60933;46.398;-63.798;2023-08-01T06:51:24;101099.28;;;16.41;92.62
66703;BME280;60933;46.398;-63.798;2023-08-01T06:53:50;101095.91;;;16.39;92.60
66703;BME280;60933;46.398;-63.798;2023-08-01T06:56:16;101109.91;;;16.37;92.51
66703;BME280;60933;46.398;-63.798;2023-08-01T06:58:42;101104.81;;;16.34;92.23
66703;BME280;60933;46.398;-63.798;2023-08-01T07:01:08;101103.41;;;16.26;92.52
66703;BME280;60933;46.398;-63.798;2023-08-01T07:03:34;101102.66;;;16.24;92.95
66703;BME280;60933;46.398;-63.798;2023-08-01T07:06:00;101105.25;;;16.24;92.67
66703;BME280;60933;46.398;-63.798;2023-08-01T07:08:26;101088.03;;;16.20;92.61
66703;BME280;60933;46.398;-63.798;2023-08-01T07:10:52;101093.38;;;16.17;92.74
66703;BME280;60933;46.398;-63.798;2023-08-01T07:13:19;101089.28;;;16.11;92.99
66703;BME280;60933;46.398;-63.798;2023-08-01T07:15:45;101090.41;;;16.06;93.22
66703;BME280;60933;46.398;-63.798;2023-08-01T07:18:11;101098.28;;;16.04;93.65
66703;BME280;60933;46.398;-63.798;2023-08-01T07:20:37;101100.16;;;16.01;93.67
66703;BME280;60933;46.398;-63.798;2023-08-01T07:23:03;101102.88;;;15.97;93.38
66703;BME280;60933;46.398;-63.798;2023-08-01T07:25:29;101107.19;;;15.98;93.16
66703;BME280;60933;46.398;-63.798;2023-08-01T07:27:55;101109.84;;;15.97;93.14
66703;BME280;60933;46.398;-63.798;2023-08-01T07:30:22;101109.19;;;15.92;92.81
66703;BME280;60933;46.398;-63.798;2023-08-01T07:32:48;101102.50;;;15.86;93.23
66703;BME280;60933;46.398;-63.798;2023-08-01T07:35:14;101107.56;;;15.89;92.96
66703;BME280;60933;46.398;-63.798;2023-08-01T07:37:40;101111.97;;;15.87;93.22
66703;BME280;60933;46.398;-63.798;2023-08-01T07:40:07;101109.50;;;15.84;93.30
66703;BME280;60933;46.398;-63.798;2023-08-01T07:42:33;101116.63;;;15.79;93.30
66703;BME280;60933;46.398;-63.798;2023-08-01T07:44:59;101121.06;;;15.77;93.14
66703;BME280;60933;46.398;-63.798;2023-08-01T07:47:25;101121.16;;;15.74;93.31
66703;BME280;60933;46.398;-63.798;2023-08-01T07:49:52;101120.44;;;15.70;93.44
66703;BME280;60933;46.398;-63.798;2023-08-01T07:52:18;101110.16;;;15.67;93.55
66703;BME280;60933;46.398;-63.798;2023-08-01T07:54:44;101118.88;;;15.66;93.38
66703;BME280;60933;46.398;-63.798;2023-08-01T07:57:11;101119.84;;;15.63;93.41
66703;BME280;60933;46.398;-63.798;2023-08-01T07:59:37;101127.72;;;15.62;93.51
66703;BME280;60933;46.398;-63.798;2023-08-01T08:02:03;101121.00;;;15.56;93.07
66703;BME280;60933;46.398;-63.798;2023-08-01T08:04:29;101127.97;;;15.56;93.12
66703;BME280;60933;46.398;-63.798;2023-08-01T08:06:55;101132.38;;;15.54;92.99
66703;BME280;60933;46.398;-63.798;2023-08-01T08:09:26;101142.00;;;15.51;92.85
66703;BME280;60933;46.398;-63.798;2023-08-01T08:11:52;101136.13;;;15.46;92.79
66703;BME280;60933;46.398;-63.798;2023-08-01T08:14:18;101141.41;;;15.45;92.90
66703;BME280;60933;46.398;-63.798;2023-08-01T08:16:47;101145.88;;;15.41;93.24
66703;BME280;60933;46.398;-63.798;2023-08-01T08:19:13;101146.78;;;15.40;93.19
66703;BME280;60933;46.398;-63.798;2023-08-01T08:21:39;101150.34;;;15.38;92.96
66703;BME280;60933;46.398;-63.798;2023-08-01T08:24:05;101150.44;;;15.34;93.23
66703;BME280;60933;46.398;-63.798;2023-08-01T08:26:31;101151.41;;;15.32;93.19
66703;BME280;60933;46.398;-63.798;2023-08-01T08:28:59;101159.47;;;15.26;93.50
66703;BME280;60933;46.398;-63.798;2023-08-01T08:31:25;101154.44;;;15.21;93.73
66703;BME280;60933;46.398;-63.798;2023-08-01T08:33:51;101171.59;;;15.25;93.86
66703;BME280;60933;46.398;-63.798;2023-08-01T08:36:17;101166.63;;;15.19;94.13
66703;BME280;60933;46.398;-63.798;2023-08-01T08:38:44;101166.75;;;15.16;94.16
66703;BME280;60933;46.398;-63.798;2023-08-01T08:41:13;101182.38;;;15.16;93.97
66703;BME280;60933;46.398;-63.798;2023-08-01T08:43:41;101177.28;;;15.13;94.28
66703;BME280;60933;46.398;-63.798;2023-08-01T08:46:08;101185.88;;;15.15;94.16
66703;BME280;60933;46.398;-63.798;2023-08-01T08:48:35;101185.97;;;15.12;94.23
66703;BME280;60933;46.398;-63.798;2023-08-01T08:51:03;101182.56;;;15.10;94.03
66703;BME280;60933;46.398;-63.798;2023-08-01T08:53:30;101198.00;;;15.14;93.93
66703;BME280;60933;46.398;-63.798;2023-08-01T08:56:00;101192.88;;;15.13;93.80
66703;BME280;60933;46.398;-63.798;2023-08-01T08:58:26;101197.22;;;15.12;93.80
66703;BME280;60933;46.398;-63.798;2023-08-01T09:00:52;101198.16;;;15.10;93.49
66703;BME280;60933;46.398;-63.798;2023-08-01T09:03:18;101198.31;;;15.07;93.50
66703;BME280;60933;46.398;-63.798;2023-08-01T09:05:54;101197.44;;;15.06;93.39
66703;BME280;60933;46.398;-63.798;2023-08-01T09:08:27;101199.13;;;15.07;93.53
66703;BME280;60933;46.398;-63.798;2023-08-01T09:10:54;101206.91;;;15.09;93.24
66703;BME280;60933;46.398;-63.798;2023-08-01T09:13:20;101209.59;;;15.06;93.53
66703;BME280;60933;46.398;-63.798;2023-08-01T09:15:46;101207.91;;;15.04;93.41
66703;BME280;60933;46.398;-63.798;2023-08-01T09:18:13;101210.41;;;15.08;93.37
66703;BME280;60933;46.398;-63.798;2023-08-01T09:20:49;101210.44;;;15.06;93.43
66703;BME280;60933;46.398;-63.798;2023-08-01T09:23:16;101213.91;;;15.07;93.55
66703;BME280;60933;46.398;-63.798;2023-08-01T09:25:43;101220.66;;;15.11;93.39
66703;BME280;60933;46.398;-63.798;2023-08-01T09:28:23;101221.47;;;15.13;93.42
66703;BME280;60933;46.398;-63.798;2023-08-01T09:30:53;101211.97;;;15.12;93.26
66703;BME280;60933;46.398;-63.798;2023-08-01T09:33:23;101223.06;;;15.17;93.05
66703;BME280;60933;46.398;-63.798;2023-08-01T09:35:51;101221.06;;;15.24;92.91
66703;BME280;60933;46.398;-63.798;2023-08-01T09:38:17;101221.81;;;15.27;92.95
66703;BME280;60933;46.398;-63.798;2023-08-01T09:40:45;101224.97;;;15.35;92.58
66703;BME280;60933;46.398;-63.798;2023-08-01T09:43:12;101237.75;;;15.42;92.49
66703;BME280;60933;46.398;-63.798;2023-08-01T09:45:49;101235.88;;;15.45;91.97
66703;BME280;60933;46.398;-63.798;2023-08-01T09:48:26;101245.22;;;15.51;91.42
66703;BME280;60933;46.398;-63.798;2023-08-01T09:51:09;101249.22;;;15.60;90.92
66703;BME280;60933;46.398;-63.798;2023-08-01T09:53:55;101245.53;;;15.65;90.54
66703;BME280;60933;46.398;-63.798;2023-08-01T09:56:26;101258.19;;;15.75;89.92
66703;BME280;60933;46.398;-63.798;2023-08-01T09:58:55;101259.78;;;15.79;89.33
66703;BME280;60933;46.398;-63.798;2023-08-01T10:01:24;101248.31;;;15.85;89.47
66703;BME280;60933;46.398;-63.798;2023-08-01T10:03:52;101253.41;;;15.88;88.84
66703;BME280;60933;46.398;-63.798;2023-08-01T10:06:22;101261.03;;;15.92;88.88
66703;BME280;60933;46.398;-63.798;2023-08-01T10:08:51;101256.50;;;15.97;88.53
66703;BME280;60933;46.398;-63.798;2023-08-01T10:11:19;101261.59;;;16.01;87.87
66703;BME280;60933;46.398;-63.798;2023-08-01T10:13:46;101267.09;;;16.15;87.69
66703;BME280;60933;46.398;-63.798;2023-08-01T10:16:13;101266.13;;;16.18;86.96
66703;BME280;60933;46.398;-63.798;2023-08-01T10:18:40;101261.72;;;16.20;85.97
66703;BME280;60933;46.398;-63.798;2023-08-01T10:21:08;101268.28;;;16.28;85.87
66703;BME280;60933;46.398;-63.798;2023-08-01T10:23:35;101269.75;;;16.36;85.48
66703;BME280;60933;46.398;-63.798;2023-08-01T10:26:05;101278.75;;;16.49;85.15
66703;BME280;60933;46.398;-63.798;2023-08-01T10:28:48;101275.84;;;16.57;84.73
66703;BME280;60933;46.398;-63.798;2023-08-01T10:31:18;101278.19;;;16.63;84.07
66703;BME280;60933;46.398;-63.798;2023-08-01T10:33:48;101289.97;;;16.72;83.44
66703;BME280;60933;46.398;-63.798;2023-08-01T10:36:22;101278.63;;;16.73;81.93
66703;BME280;60933;46.398;-63.798;2023-08-01T10:38:56;101298.13;;;16.85;81.90
66703;BME280;60933;46.398;-63.798;2023-08-01T10:41:28;101295.44;;;16.86;81.29
66703;BME280;60933;46.398;-63.798;2023-08-01T10:44:15;101307.34;;;16.93;81.53
66703;BME280;60933;46.398;-63.798;2023-08-01T10:46:55;101300.13;;;17.00;80.63
66703;BME280;60933;46.398;-63.798;2023-08-01T10:49:42;101304.16;;;17.07;80.52
66703;BME280;60933;46.398;-63.798;2023-08-01T10:52:21;101312.28;;;17.20;80.17
66703;BME280;60933;46.398;-63.798;2023-08-01T10:54:59;101314.78;;;17.23;80.06
66703;BME280;60933;46.398;-63.798;2023-08-01T10:57:28;101317.25;;;17.27;78.63
66703;BME280;60933;46.398;-63.798;2023-08-01T10:59:58;101322.34;;;17.30;79.06
66703;BME280;60933;46.398;-63.798;2023-08-01T11:02:28;101320.34;;;17.35;77.76
66703;BME280;60933;46.398;-63.798;2023-08-01T11:04:59;101327.06;;;17.40;77.98
66703;BME280;60933;46.398;-63.798;2023-08-01T11:07:26;101343.16;;;17.50;78.01
66703;BME280;60933;46.398;-63.798;2023-08-01T11:10:11;101334.56;;;17.48;77.14
66703;BME280;60933;46.398;-63.798;2023-08-01T11:12:42;101345.91;;;17.47;77.00
66703;BME280;60933;46.398;-63.798;2023-08-01T11:15:10;101347.47;;;17.51;77.20
66703;BME280;60933;46.398;-63.798;2023-08-01T11:17:40;101350.22;;;17.48;76.84
66703;BME280;60933;46.398;-63.798;2023-08-01T11:20:11;101358.00;;;17.50;77.13
66703;BME280;60933;46.398;-63.798;2023-08-01T11:22:48;101359.09;;;17.44;77.06
66703;BME280;60933;46.398;-63.798;2023-08-01T11:25:15;101357.41;;;17.43;76.89
66703;BME280;60933;46.398;-63.798;2023-08-01T11:27:41;101365.13;;;17.46;76.47
66703;BME280;60933;46.398;-63.798;2023-08-01T11:30:07;101358.56;;;17.56;76.59
66703;BME280;60933;46.398;-63.798;2023-08-01T11:32:36;101360.56;;;17.70;76.58
66703;BME280;60933;46.398;-63.798;2023-08-01T11:35:03;101371.28;;;17.83;76.13
66703;BME280;60933;46.398;-63.798;2023-08-01T11:37:30;101371.84;;;17.90;74.58
66703;BME280;60933;46.398;-63.798;2023-08-01T11:39:56;101369.84;;;17.97;74.63
66703;BME280;60933;46.398;-63.798;2023-08-01T11:42:23;101372.09;;;18.04;74.64
66703;BME280;60933;46.398;-63.798;2023-08-01T11:44:49;101376.06;;;18.13;74.89
66703;BME280;60933;46.398;-63.798;2023-08-01T11:47:17;101375.88;;;18.16;74.56
66703;BME280;60933;46.398;-63.798;2023-08-01T11:49:48;101372.31;;;18.19;74.11
66703;BME280;60933;46.398;-63.798;2023-08-01T11:52:28;101366.38;;;18.34;73.86
66703;BME280;60933;46.398;-63.798;2023-08-01T11:54:55;101378.22;;;18.42;72.52
66703;BME280;60933;46.398;-63.798;2023-08-01T11:57:21;101362.44;;;18.43;71.58
66703;BME280;60933;46.398;-63.798;2023-08-01T11:59:52;101371.56;;;18.54;72.45
66703;BME280;60933;46.398;-63.798;2023-08-01T12:02:26;101367.72;;;18.61;72.72
66703;BME280;60933;46.398;-63.798;2023-08-01T12:04:53;101365.69;;;18.48;71.70
66703;BME280;60933;46.398;-63.798;2023-08-01T12:07:20;101371.78;;;18.49;72.25
66703;BME280;60933;46.398;-63.798;2023-08-01T12:10:00;101372.78;;;18.46;73.08
66703;BME280;60933;46.398;-63.798;2023-08-01T12:12:27;101363.28;;;18.44;72.66
66703;BME280;60933;46.398;-63.798;2023-08-01T12:14:54;101380.16;;;18.56;72.03
66703;BME280;60933;46.398;-63.798;2023-08-01T12:17:24;101366.72;;;18.63;71.61
66703;BME280;60933;46.398;-63.798;2023-08-01T12:19:50;101383.25;;;18.81;72.06
66703;BME280;60933;46.398;-63.798;2023-08-01T12:22:16;101374.03;;;18.74;72.01
66703;BME280;60933;46.398;-63.798;2023-08-01T12:24:43;101382.72;;;18.75;72.12
66703;BME280;60933;46.398;-63.798;2023-08-01T12:27:09;101379.09;;;18.77;71.59
66703;BME280;60933;46.398;-63.798;2023-08-01T12:29:36;101382.78;;;18.73;71.73
66703;BME280;60933;46.398;-63.798;2023-08-01T12:32:03;101385.94;;;18.62;71.07